Terminal Aerodrome Forecast
Issued by NWS

Home | Current Version | Previous Version | Text Only | Print | Product List | Glossary On
Versions: 1 2 3 4 5 6 7 8 9 10 11 12 13 14 15 16 17 18 19 20
000
FTUS43 KDLH 291700
TAFBRD
TAF
KBRD 291740Z 2918/3018 33023G35KT P6SM FEW022 OVC035
     FM292300 31012G22KT P6SM SCT035 BKN050
     FM300200 31008KT P6SM BKN100
     FM300600 VRB04KT P6SM BKN050=

USA.gov is the U.S. government's official web portal to all federal, state and local government web resources and services.